Yukon, Unorganized, Yukon Territory

12:25 PM PDT on August 03, 2015 (GMT -0700)
Dawson | | Change Station
CLOSE
Current Station
Airport
Location: Dawson,
Elevation: 1214 ft
Nearby Weather Stations

Elev 1214 ft 64.04 °N, 139.13 °W | Updated 25 minutes ago

Mostly Cloudy
Mostly Cloudy
61 °F
Feels Like 61 °F
N
9
Wind Variable Wind from SW

Today
High -- | Low -- °F
--% Chance of Precip.
Yesterday
High -- | Low -- °F
Precip. -- in
5:30 AM 11:12 PM
Waning Gibbous, 84% visible
Pressure 30.16 in
Visibility 20.0 miles
Clouds Few 5000 ft
Scattered Clouds 9000 ft
Mostly Cloudy 23000 ft
Dew Point 48 °F
Humidity 63%
Rainfall 0.00 in
Snow Depth Not available.
UV 3 out of 12
Pollen Not available.
Air Quality Not available.
Flu Activity Not available.
METAR CYDA 031900Z 22008KT 180V240 20SM FEW050 SCT090 BKN230 16/09 A3012 RMK SC2AC1CI3 SLP211 DENSITY ALT 1400FT

More Conditions Fewer Conditions

Pressure 30.16 in
Visibility 20.0 miles
Clouds Few 5000 ft
Scattered Clouds 9000 ft
Mostly Cloudy 23000 ft
Dew Point 48 °F
Humidity 63%
Rainfall 0.00 in
Snow Depth Not available.
UV 3 out of 12
Pollen Not available.
Air Quality Not available.
Flu Activity Not available.
METAR CYDA 031900Z 22008KT 180V240 20SM FEW050 SCT090 BKN230 16/09 A3012 RMK SC2AC1CI3 SLP211 DENSITY ALT 1400FT

More Conditions Fewer Conditions

10-Day Weather Forecast

×

Almanac

Astronomy

Aug. 03, 2015 Rise Set
Actual Time
Civil Twilight
Nautical Twilight
Astronomical Twilight
Moon
Length of Visible Light
Length of Day
Tomorrow will be .
, % of the Moon is Illuminated

Today's Extremes

Country Highs Country Lows

Community

WunderPhotos

Upload Photos

1,843,710 photos uploaded!

WunderBlogs® & News

Nearby

Air Quality

  Air Quality AQ Index Pollutant
Not available.

Snow Depth

Station Depth Elevation

Earthquake Activity

City Distance Mag. Time & Date
Minimum magnitude displayed is 2.5.

Coastal Water Temperatures

Place Temperature

Stations

Nearby Weather Stations

Station Location Temp. Windchill Dew Point Humidity Wind Precip. Elev Updated Type